createdAt,value
2023-12-12T00:03:35.016Z,90.80
2023-12-12T00:07:37.219Z,90.60
2023-12-12T00:11:39.218Z,90.60
2023-12-12T00:15:41.253Z,90.90
2023-12-12T00:19:46.380Z,91.00
2023-12-12T00:23:48.398Z,90.70
2023-12-12T00:27:56.370Z,90.80
2023-12-12T00:31:58.312Z,90.60
2023-12-12T00:36:02.150Z,90.80
2023-12-12T00:40:04.617Z,90.70
2023-12-12T00:44:06.640Z,90.30
2023-12-12T00:48:08.723Z,90.00
2023-12-12T00:52:10.760Z,90.10
2023-12-12T00:56:13.034Z,89.60
2023-12-12T01:00:15.670Z,90.10
2023-12-12T01:04:18.066Z,90.00
2023-12-12T01:08:20.171Z,89.10
2023-12-12T01:12:22.129Z,89.50
2023-12-12T01:16:24.566Z,88.70
2023-12-12T01:20:27.167Z,89.30
2023-12-12T01:24:31.294Z,89.60
2023-12-12T01:28:33.299Z,89.60
2023-12-12T01:32:35.374Z,90.00
2023-12-12T01:36:37.984Z,90.00
2023-12-12T01:40:40.009Z,90.40
2023-12-12T01:44:42.044Z,89.60
2023-12-12T01:48:44.146Z,89.80
2023-12-12T01:52:46.153Z,88.70
2023-12-12T01:56:51.616Z,87.30
2023-12-12T02:00:54.530Z,87.20
2023-12-12T02:04:56.704Z,88.50
2023-12-12T02:08:58.836Z,89.80
2023-12-12T02:13:00.939Z,90.10
2023-12-12T02:17:03.111Z,89.80
2023-12-12T02:21:05.834Z,90.00
2023-12-12T02:25:08.607Z,90.10
2023-12-12T02:29:10.861Z,90.30
2023-12-12T02:33:12.992Z,90.30
2023-12-12T02:37:15.001Z,90.40
2023-12-12T02:41:17.008Z,90.50
2023-12-12T02:45:19.022Z,90.40
2023-12-12T02:49:21.109Z,90.00
2023-12-12T02:53:23.123Z,89.80
2023-12-12T02:57:25.765Z,89.50
2023-12-12T03:01:28.282Z,89.50
2023-12-12T03:05:30.384Z,89.30
2023-12-12T03:09:32.321Z,89.90
2023-12-12T03:13:34.542Z,90.10
2023-12-12T03:17:36.900Z,90.00
2023-12-12T03:21:39.012Z,88.50
2023-12-12T03:25:41.130Z,88.90
2023-12-12T03:29:43.190Z,88.60
2023-12-12T03:33:45.266Z,89.80
2023-12-12T03:37:47.292Z,90.00
2023-12-12T03:41:49.261Z,90.30
2023-12-12T03:45:51.939Z,90.60
2023-12-12T03:49:53.973Z,90.80
2023-12-12T03:53:55.995Z,90.80
2023-12-12T03:57:57.972Z,90.70
2023-12-12T04:01:59.988Z,90.20
2023-12-12T04:06:05.563Z,90.00
2023-12-12T04:10:09.024Z,90.40
2023-12-12T04:14:11.110Z,90.40
2023-12-12T04:18:13.402Z,89.10
2023-12-12T04:22:15.552Z,89.10
2023-12-12T04:26:18.720Z,88.50
2023-12-12T04:30:20.899Z,89.40
2023-12-12T04:34:23.100Z,90.00
2023-12-12T04:38:25.063Z,90.10
2023-12-12T04:42:27.044Z,90.80
2023-12-12T04:46:29.035Z,91.30
2023-12-12T04:50:31.085Z,91.70
2023-12-12T04:54:33.128Z,91.80
2023-12-12T04:58:35.107Z,91.70
2023-12-12T05:02:37.120Z,91.50
2023-12-12T05:06:39.173Z,92.10
2023-12-12T05:10:41.261Z,92.50
2023-12-12T05:14:43.253Z,92.40
2023-12-12T05:18:46.131Z,92.40
2023-12-12T05:22:48.181Z,92.70
2023-12-12T05:26:50.106Z,93.60
2023-12-12T05:30:52.148Z,93.00
2023-12-12T05:34:54.280Z,93.30
2023-12-12T05:38:56.234Z,93.00
2023-12-12T05:42:58.289Z,93.10
2023-12-12T05:47:00.320Z,92.90
2023-12-12T05:51:02.246Z,92.90
2023-12-12T05:55:06.782Z,92.50
2023-12-12T05:59:08.770Z,92.60
2023-12-12T06:03:10.701Z,91.90
2023-12-12T06:07:13.621Z,91.40
2023-12-12T06:11:17.434Z,91.40
2023-12-12T06:15:19.449Z,92.00
2023-12-12T06:19:21.518Z,91.70
2023-12-12T06:23:23.604Z,91.80
2023-12-12T06:27:25.740Z,91.30
2023-12-12T06:31:27.896Z,91.90
2023-12-12T06:35:29.978Z,92.10
2023-12-12T06:39:32.051Z,92.10
2023-12-12T06:43:34.027Z,92.00
2023-12-12T06:47:36.387Z,92.10
2023-12-12T06:51:38.386Z,91.90
2023-12-12T06:55:40.414Z,91.40
2023-12-12T06:59:42.357Z,91.20
2023-12-12T07:03:44.393Z,90.30
2023-12-12T07:07:46.471Z,90.90
2023-12-12T07:11:48.535Z,90.70
2023-12-12T07:15:50.532Z,90.80
2023-12-12T07:19:52.631Z,91.00
2023-12-12T07:23:54.843Z,91.30
2023-12-12T07:27:56.855Z,91.20
2023-12-12T07:31:58.876Z,91.50
2023-12-12T07:36:00.813Z,90.90
2023-12-12T07:40:04.676Z,91.70
2023-12-12T07:44:06.864Z,91.60
2023-12-12T07:48:10.141Z,91.70
2023-12-12T07:52:12.386Z,92.00
2023-12-12T07:56:14.524Z,90.90
2023-12-12T08:00:16.775Z,90.80
2023-12-12T08:04:18.986Z,90.30
2023-12-12T08:08:21.021Z,90.50
2023-12-12T08:12:24.942Z,90.00
2023-12-12T08:16:27.076Z,90.20
2023-12-12T08:20:29.042Z,90.40
2023-12-12T08:24:31.020Z,90.00
2023-12-12T08:28:33.133Z,90.10
2023-12-12T08:32:36.831Z,90.00
2023-12-12T08:36:38.827Z,90.00
2023-12-12T08:40:41.068Z,89.50
2023-12-12T08:44:43.223Z,88.90
2023-12-12T08:48:45.351Z,88.80
2023-12-12T08:52:48.419Z,90.20
2023-12-12T08:56:54.279Z,90.20
2023-12-12T09:00:56.822Z,90.30
2023-12-12T09:04:59.690Z,90.10
2023-12-12T09:09:01.705Z,90.30
2023-12-12T09:13:04.787Z,90.30
2023-12-12T09:17:06.947Z,91.00
2023-12-12T09:21:09.165Z,91.20
2023-12-12T09:25:11.324Z,90.50
2023-12-12T09:29:13.546Z,90.20
2023-12-12T09:33:15.679Z,90.40
2023-12-12T09:37:17.742Z,90.50
2023-12-12T09:41:24.279Z,90.60
2023-12-12T09:45:26.563Z,91.30
2023-12-12T09:49:28.992Z,90.90
2023-12-12T09:53:36.488Z,91.00
2023-12-12T09:57:38.483Z,90.80
2023-12-12T10:01:42.178Z,90.10
2023-12-12T10:05:54.169Z,90.30
2023-12-12T10:09:56.197Z,90.40
2023-12-12T10:13:59.921Z,90.40
2023-12-12T10:18:02.274Z,90.40
2023-12-12T10:22:11.625Z,89.40
2023-12-12T10:26:15.177Z,89.00
2023-12-12T10:30:17.153Z,90.00
2023-12-12T10:34:21.307Z,89.80
2023-12-12T10:38:26.556Z,87.90
2023-12-12T10:42:33.388Z,88.50
2023-12-12T10:46:38.465Z,87.80
2023-12-12T10:50:44.986Z,87.10
2023-12-12T10:54:48.646Z,88.70
2023-12-12T10:58:52.592Z,87.00
2023-12-12T11:02:55.614Z,87.30
2023-12-12T11:06:58.296Z,88.50
2023-12-12T11:11:09.988Z,89.30
2023-12-12T11:15:13.401Z,90.10
2023-12-12T11:19:19.176Z,89.50
2023-12-12T11:23:46.433Z,89.40
2023-12-12T11:27:50.748Z,89.30
2023-12-12T11:32:04.811Z,89.10
2023-12-12T11:36:07.332Z,88.80
2023-12-12T11:40:11.702Z,88.10
2023-12-12T11:44:13.752Z,88.00
2023-12-12T11:48:16.736Z,88.60
2023-12-12T11:52:40.803Z,88.70
2023-12-12T11:56:43.029Z,89.30
2023-12-12T12:00:45.410Z,88.30
2023-12-12T12:04:47.545Z,88.40
2023-12-12T12:08:51.623Z,87.20
2023-12-12T12:12:58.562Z,88.20
2023-12-12T12:17:02.072Z,88.00
2023-12-12T12:21:05.357Z,87.80
2023-12-12T12:25:08.850Z,88.00
2023-12-12T12:29:11.605Z,88.00
2023-12-12T12:33:14.872Z,88.30
2023-12-12T12:37:33.837Z,87.50
2023-12-12T12:41:35.927Z,87.80
2023-12-12T12:45:37.894Z,87.70
2023-12-12T12:49:41.035Z,87.40
2023-12-12T12:53:43.125Z,87.00
2023-12-12T12:57:45.096Z,86.30
2023-12-12T13:01:47.360Z,87.00
2023-12-12T13:05:49.726Z,86.60
2023-12-12T13:09:51.918Z,86.20
2023-12-12T13:13:53.919Z,85.60
2023-12-12T13:17:55.958Z,85.30
2023-12-12T13:21:58.185Z,84.70
2023-12-12T13:26:00.285Z,84.90
2023-12-12T13:30:02.566Z,85.90
2023-12-12T13:34:07.392Z,85.10
2023-12-12T13:38:09.868Z,85.30
2023-12-12T13:42:11.826Z,84.40
2023-12-12T13:46:13.828Z,84.50
2023-12-12T13:50:16.017Z,84.30
2023-12-12T13:54:18.242Z,84.60
2023-12-12T13:58:22.001Z,85.10
2023-12-12T14:02:30.179Z,87.70
2023-12-12T14:06:35.488Z,89.10
2023-12-12T14:10:39.209Z,90.30
2023-12-12T14:14:41.452Z,89.70
2023-12-12T14:18:44.334Z,90.40
2023-12-12T14:22:55.132Z,89.70
2023-12-12T14:27:05.479Z,89.20
2023-12-12T14:31:08.723Z,89.40
2023-12-12T14:35:10.776Z,89.20
2023-12-12T14:39:17.141Z,89.90
2023-12-12T14:43:19.939Z,90.50
2023-12-12T14:47:22.043Z,90.20
2023-12-12T14:51:24.664Z,90.30
2023-12-12T14:55:26.703Z,90.60
2023-12-12T14:59:28.796Z,90.20
2023-12-12T15:03:31.180Z,90.80
2023-12-12T15:07:33.242Z,90.90
2023-12-12T15:11:35.388Z,90.70
2023-12-12T15:15:37.805Z,90.80
2023-12-12T15:19:39.782Z,90.70
2023-12-12T15:23:42.815Z,90.90
2023-12-12T15:27:44.930Z,90.80
2023-12-12T15:31:49.069Z,90.40
2023-12-12T15:35:51.227Z,90.60
2023-12-12T15:39:53.230Z,90.40
2023-12-12T15:43:56.736Z,90.60
2023-12-12T15:47:58.829Z,90.80
2023-12-12T15:52:02.076Z,91.10
2023-12-12T15:56:12.568Z,90.80
2023-12-12T16:00:14.825Z,91.20
2023-12-12T16:04:16.932Z,90.20
2023-12-12T16:08:19.089Z,90.10
2023-12-12T16:12:21.069Z,90.10
2023-12-12T16:16:25.108Z,90.20
2023-12-12T16:20:27.394Z,90.70
2023-12-12T16:24:31.909Z,90.30
2023-12-12T16:28:34.188Z,89.60
2023-12-12T16:32:36.548Z,89.60
2023-12-12T16:36:38.646Z,90.20
2023-12-12T16:40:40.911Z,90.90
2023-12-12T16:44:43.522Z,90.00
2023-12-12T16:48:45.820Z,90.00
2023-12-12T16:52:48.000Z,90.20
2023-12-12T16:56:50.058Z,90.00
2023-12-12T17:00:52.183Z,89.80
2023-12-12T17:04:56.350Z,90.10
2023-12-12T17:08:58.631Z,90.10
2023-12-12T17:13:00.810Z,90.20
2023-12-12T17:17:03.088Z,90.50
2023-12-12T17:21:06.802Z,90.50
2023-12-12T17:25:09.755Z,90.80
2023-12-12T17:29:12.474Z,91.30
2023-12-12T17:33:14.564Z,91.80
2023-12-12T17:37:16.539Z,91.90
2023-12-12T17:41:18.848Z,92.10
2023-12-12T17:45:20.927Z,92.10
2023-12-12T17:49:22.933Z,92.10
2023-12-12T17:53:25.801Z,92.30
2023-12-12T17:57:27.725Z,92.10
2023-12-12T18:01:37.146Z,91.50
2023-12-12T18:05:44.809Z,91.00
2023-12-12T18:09:47.278Z,90.90
2023-12-12T18:13:49.344Z,91.00
2023-12-12T18:17:51.582Z,90.70
2023-12-12T18:21:53.545Z,90.30
2023-12-12T18:25:55.538Z,90.90
2023-12-12T18:29:57.982Z,90.90
2023-12-12T18:34:00.829Z,90.90
2023-12-12T18:38:04.035Z,91.40
2023-12-12T18:42:06.396Z,90.90
2023-12-12T18:46:08.471Z,90.90
2023-12-12T18:50:11.352Z,90.70
2023-12-12T18:54:13.646Z,90.60
2023-12-12T18:58:15.659Z,90.40
2023-12-12T19:02:18.069Z,90.60
2023-12-12T19:06:20.128Z,90.10
2023-12-12T19:10:22.253Z,90.10
2023-12-12T19:14:24.319Z,90.00
2023-12-12T19:18:26.406Z,90.50
2023-12-12T19:22:29.312Z,90.50
2023-12-12T19:26:31.282Z,90.50
2023-12-12T19:30:34.429Z,91.60
2023-12-12T19:34:36.582Z,91.30
2023-12-12T19:38:38.705Z,90.70
2023-12-12T19:42:40.979Z,90.50
2023-12-12T19:46:49.533Z,91.10
2023-12-12T19:50:51.520Z,91.40
2023-12-12T19:54:53.534Z,91.50
2023-12-12T19:58:55.635Z,91.70
2023-12-12T20:02:57.609Z,91.40
2023-12-12T20:06:59.775Z,91.40
2023-12-12T20:11:02.030Z,91.00
2023-12-12T20:15:04.373Z,91.40
2023-12-12T20:19:08.104Z,91.40
2023-12-12T20:23:10.233Z,91.70
2023-12-12T20:27:12.476Z,91.80
2023-12-12T20:31:15.288Z,91.90
2023-12-12T20:35:18.943Z,91.50
2023-12-12T20:39:21.369Z,91.70
2023-12-12T20:43:24.009Z,92.20
2023-12-12T20:47:26.064Z,92.40
2023-12-12T20:51:28.195Z,91.60
2023-12-12T20:55:32.183Z,91.20
2023-12-12T20:59:34.285Z,90.90
2023-12-12T21:03:36.271Z,91.10
2023-12-12T21:07:38.394Z,91.40
2023-12-12T21:11:40.620Z,91.60
2023-12-12T21:15:43.480Z,91.60
2023-12-12T21:19:45.636Z,91.80
2023-12-12T21:23:47.739Z,91.70
2023-12-12T21:27:49.664Z,91.60
2023-12-12T21:31:51.946Z,91.30
2023-12-12T21:35:54.053Z,91.60
2023-12-12T21:40:02.367Z,91.30
2023-12-12T21:44:04.806Z,91.10
2023-12-12T21:48:07.183Z,90.90
2023-12-12T21:52:09.496Z,90.70
2023-12-12T21:56:22.656Z,90.70
2023-12-12T22:00:24.663Z,90.10
2023-12-12T22:04:26.695Z,90.00
2023-12-12T22:08:28.885Z,90.20
2023-12-12T22:12:32.187Z,90.10
2023-12-12T22:16:34.219Z,90.00
2023-12-12T22:20:37.573Z,90.10
2023-12-12T22:24:41.006Z,90.60
2023-12-12T22:28:42.996Z,90.50
2023-12-12T22:32:45.054Z,90.50
2023-12-12T22:36:47.008Z,90.70
2023-12-12T22:40:49.622Z,91.30
2023-12-12T22:44:51.630Z,91.10
2023-12-12T22:48:53.769Z,90.70
2023-12-12T22:52:55.882Z,91.50
2023-12-12T22:56:57.855Z,90.30
2023-12-12T23:01:01.372Z,91.00
2023-12-12T23:05:03.621Z,91.20
2023-12-12T23:09:08.118Z,91.40
2023-12-12T23:13:10.265Z,91.20
2023-12-12T23:17:12.348Z,90.90
2023-12-12T23:21:14.446Z,90.80
2023-12-12T23:25:17.046Z,90.40
2023-12-12T23:29:19.024Z,90.90
2023-12-12T23:33:21.098Z,90.20
2023-12-12T23:37:24.362Z,90.40
2023-12-12T23:41:26.409Z,90.30
2023-12-12T23:45:35.230Z,90.80
2023-12-12T23:49:41.269Z,90.20
2023-12-12T23:53:43.245Z,90.20
2023-12-12T23:57:45.313Z,90.40
